Waterman, Pennsylvania
Current Conditions -  °F | °C
As of 2:55 PM on Monday 22 Dec 2014 (Local Time) from KIDI Reporting Station
Scattered Clouds Scattered Clouds  
Wind Chill: 32°   Ceiling: Unl
Heat Index: 39°   Visibility: 10mi
Dew Point: 28°   Wind: 10mph
Humidity: 65%   Direction: 140°SE
Pressure: 30.08"   Gusts: NA
Location:  40.5413°N, 79.1838°W
Report Text: KIDI 221955Z AUTO 14009KT 10SM SCT038 04/M02 A3008 RMK A01
Loading
Personal Weather Stations






























Interactive Weather Map New forecast layout! Learn more

10-Day Weather Forecast

Advertisements
Track Severe Weather on mobile